Anangel Fortune — SXVD — position and weather

sailwx.info

Track history (hours):
 
Tides and Currents Weather Stations Pressure Air Temp Water Temp Dewpoint Dewpoint Depression Visibility Wind Speed Wind Dir Waves Ship Positions

Anangel Fortune

Last reported at 2017-Oct-18 01:54 UTC. Time now 2017-Oct-18 11:21 UTC.
Position N 37°35' E 010°12'.

Length 289 m; draft 14.3 m.

Type: Cargo ship. MMSI: 240385000.

Date/timePositionNaut miles runAvg speedWind from/ knotsBaromVisibWave heightAir tempDewpointWater temp
2017-Oct-18 01:54N 37°35' E 010°12'10214.1
2017-Oct-17 18:41N 37°19' E 008°05'213.5
2017-Oct-17 18:30N 37°19' E 008°02'713.4
2017-Oct-17 18:00N 37°19' E 007°54'1113.6
2017-Oct-17 17:10N 37°20' E 007°40'27213.9
2017-Oct-16 21:39N 37°07' E 001°58'1813.7
2017-Oct-16 20:21N 37°03' E 001°36'713.7
2017-Oct-16 19:49N 37°01' E 001°28'813.5
2017-Oct-16 19:13N 36°59' E 001°18'813.4
2017-Oct-16 18:37N 36°57' E 001°08'1513.2
2017-Oct-16 17:27N 36°54' E 000°49'713.0
2017-Oct-16 16:54N 36°53' E 000°40'613.0
2017-Oct-16 16:24N 36°51' E 000°33'27413.3
2017-Oct-15 19:51N 36°02' W 005°02'514.0
2017-Oct-15 19:30N 36°03' W 005°08'714.3
2017-Oct-15 19:00N 36°04' W 005°16'5 9.7
2017-Oct-15 18:30N 36°06' W 005°22'1 1.9
2017-Oct-15 18:00N 36°07' W 005°22'0 0.4
2017-Oct-15 17:23N 36°07' W 005°22'0 0.1
2017-Oct-15 15:53N 36°07' W 005°22'0 0.0
2017-Oct-15 14:44N 36°07' W 005°22'0 0.0
2017-Oct-15 13:59N 36°07' W 005°22'0 0.0
2017-Oct-15 13:26N 36°07' W 005°22'0 0.0
2017-Oct-15 12:59N 36°07' W 005°22'0 0.1
2017-Oct-15 12:29N 36°07' W 005°22'0 0.0
2017-Oct-15 11:59N 36°07' W 005°22'0 0.1
2017-Oct-15 11:29N 36°07' W 005°22'0 0.1
2017-Oct-15 10:59N 36°07' W 005°22'0 0.2
2017-Oct-15 09:02N 36°07' W 005°22'0 0.3
2017-Oct-15 08:53N 36°07' W 005°22'0 0.4
2017-Oct-15 08:29N 36°07' W 005°22'0 0.3
2017-Oct-15 07:59N 36°07' W 005°22'0 0.5
2017-Oct-15 07:29N 36°07' W 005°22'1 1.2
2017-Oct-15 07:00N 36°06' W 005°22'2 4.1
2017-Oct-15 06:31N 36°06' W 005°20'510.4
2017-Oct-15 06:00N 36°09' W 005°14'12 1.8
2017-Oct-14 23:03N 36°16' W 005°02'1 0.7
2017-Oct-14 22:06N 36°15' W 005°01'0 0.9
2017-Oct-14 21:57N 36°15' W 005°01'0 0.9
2017-Oct-14 21:30N 36°15' W 005°01'14 0.9
2017-Oct-14 06:21N 36°02' W 005°10'513.6
2017-Oct-14 06:00N 36°01' W 005°16'612.9
2017-Oct-14 05:30N 35°59' W 005°23'612.9
2017-Oct-14 05:00N 35°57' W 005°31'713.1
2017-Oct-14 04:30N 35°55' W 005°39'613.0
2017-Oct-14 04:00N 35°54' W 005°47'713.3
2017-Oct-14 03:30N 35°53' W 005°55'713.7
2017-Oct-14 02:59N 35°53' W 006°04'813.6
2017-Oct-14 02:24N 35°53' W 006°13'613.6
2017-Oct-14 01:58N 35°53' W 006°21'613.5
2017-Oct-14 01:30N 35°54' W 006°28'713.5
2017-Oct-14 01:00N 35°55' W 006°37'713.3
2017-Oct-14 00:30N 35°56' W 006°44'1013.4
2017-Oct-13 23:43N 35°59' W 006°57'313.5
2017-Oct-13 23:30N 35°59' W 007°01'713.7
2017-Oct-13 23:00N 36°01' W 007°09'713.8
2017-Oct-13 22:30N 36°01' W 007°17'714.1
2017-Oct-13 22:00N 36°03' W 007°26'713.7
2017-Oct-13 21:30N 36°04' W 007°34'713.9
2017-Oct-13 21:00N 36°06' W 007°43'713.7
2017-Oct-13 20:31N 36°07' W 007°51'713.6
2017-Oct-13 20:01N 36°08' W 007°59'713.5
2017-Oct-13 19:31N 36°09' W 008°07'713.3
2017-Oct-13 19:00N 36°10' W 008°16'713.5
2017-Oct-13 18:30N 36°11' W 008°24'713.3
2017-Oct-13 18:01N 36°13' W 008°32'713.4
2017-Oct-13 17:30N 36°14' W 008°40'713.8
2017-Oct-13 17:00N 36°15' W 008°49'612.3
2017-Oct-13 16:29N 36°16' W 008°56'4 8.1
2017-Oct-13 16:00N 36°18' W 009°01'713.9
2017-Oct-13 15:30N 36°20' W 009°09'714.0
2017-Oct-13 15:00N 36°21' W 009°17'612.9
2017-Oct-13 14:30N 36°24' W 009°25'713.7
2017-Oct-13 14:00N 36°25' W 009°33'713.4
2017-Oct-13 13:30N 36°27' W 009°41'713.3
2017-Oct-13 12:59N 36°29' W 009°49'713.5
2017-Oct-13 12:30N 36°31' W 009°57'713.5
2017-Oct-13 12:00N 36°33' W 010°05'713.4
2017-Oct-13 11:30N 36°35' W 010°13'713.6
2017-Oct-13 11:00N 36°38' W 010°21'713.6
2017-Oct-13 10:30N 36°40' W 010°29'713.8
2017-Oct-13 10:00N 36°43' W 010°37'713.4
2017-Oct-13 09:31N 36°45' W 010°44'713.6
2017-Oct-13 09:00N 36°48' W 010°52'914.2
2017-Oct-13 08:23N 36°51' W 011°02'2813.8
2017-Oct-13 06:19N 37°03' W 011°35'413.8
2017-Oct-13 05:59N 37°05' W 011°40'23613.8
2017-Oct-12 12:51N 38°31' W 016°18'913.4
2017-Oct-12 12:09N 38°33' W 016°30'1913.4
2017-Oct-12 10:46N 38°38' W 016°53'413.6
2017-Oct-12 10:27N 38°39' W 016°58'1413.5
2017-Oct-12 09:27N 38°43' W 017°15'1913.5
2017-Oct-12 08:04N 38°47' W 017°38'213.3
2017-Oct-12 07:55N 38°48' W 017°41'513.3
2017-Oct-12 07:30N 38°49' W 017°47'1113.5
2017-Oct-12 06:43N 38°52' W 018°01'313.3
2017-Oct-12 06:30N 38°53' W 018°04'813.5
2017-Oct-12 05:56N 38°55' W 018°14'613.5
2017-Oct-12 05:30N 38°56' W 018°21'1113.4
2017-Oct-12 04:39N 38°59' W 018°35'213.4
2017-Oct-12 04:30N 38°60' W 018°38'813.5
2017-Oct-12 03:55N 39°02' W 018°47'1613.6
2017-Oct-12 02:46N 39°06' W 019°07'313.5
2017-Oct-12 02:30N 39°07' W 019°11'  
Track history (hours):
 
Tides and Currents Weather Stations Pressure Air Temp Water Temp Dewpoint Dewpoint Depression Visibility Wind Speed Wind Dir Waves Ship Positions

Anangel Fortune

Last reported at 2017-Oct-18 01:54 UTC. Time now 2017-Oct-18 11:21 UTC.
Position N 37°35' E 010°12'.

Length 289 m; draft 14.3 m.

Type: Cargo ship. MMSI: 240385000.

Date/timePositionNaut miles runAvg speedWind from/ knotsBaromVisibWave heightAir tempDewpointWater temp
2017-Oct-18 01:54N 37°35' E 010°12'10214.1
2017-Oct-17 18:41N 37°19' E 008°05'213.5
2017-Oct-17 18:30N 37°19' E 008°02'713.4
2017-Oct-17 18:00N 37°19' E 007°54'1113.6
2017-Oct-17 17:10N 37°20' E 007°40'27213.9
2017-Oct-16 21:39N 37°07' E 001°58'1813.7
2017-Oct-16 20:21N 37°03' E 001°36'713.7
2017-Oct-16 19:49N 37°01' E 001°28'813.5
2017-Oct-16 19:13N 36°59' E 001°18'813.4
2017-Oct-16 18:37N 36°57' E 001°08'1513.2
2017-Oct-16 17:27N 36°54' E 000°49'713.0
2017-Oct-16 16:54N 36°53' E 000°40'613.0
2017-Oct-16 16:24N 36°51' E 000°33'27413.3
2017-Oct-15 19:51N 36°02' W 005°02'514.0
2017-Oct-15 19:30N 36°03' W 005°08'714.3
2017-Oct-15 19:00N 36°04' W 005°16'5 9.7
2017-Oct-15 18:30N 36°06' W 005°22'1 1.9
2017-Oct-15 18:00N 36°07' W 005°22'0 0.4
2017-Oct-15 17:23N 36°07' W 005°22'0 0.1
2017-Oct-15 15:53N 36°07' W 005°22'0 0.0
2017-Oct-15 14:44N 36°07' W 005°22'0 0.0
2017-Oct-15 13:59N 36°07' W 005°22'0 0.0
2017-Oct-15 13:26N 36°07' W 005°22'0 0.0
2017-Oct-15 12:59N 36°07' W 005°22'0 0.1
2017-Oct-15 12:29N 36°07' W 005°22'0 0.0
2017-Oct-15 11:59N 36°07' W 005°22'0 0.1
2017-Oct-15 11:29N 36°07' W 005°22'0 0.1
2017-Oct-15 10:59N 36°07' W 005°22'0 0.2
2017-Oct-15 09:02N 36°07' W 005°22'0 0.3
2017-Oct-15 08:53N 36°07' W 005°22'0 0.4
2017-Oct-15 08:29N 36°07' W 005°22'0 0.3
2017-Oct-15 07:59N 36°07' W 005°22'0 0.5
2017-Oct-15 07:29N 36°07' W 005°22'1 1.2
2017-Oct-15 07:00N 36°06' W 005°22'2 4.1
2017-Oct-15 06:31N 36°06' W 005°20'510.4
2017-Oct-15 06:00N 36°09' W 005°14'12 1.8
2017-Oct-14 23:03N 36°16' W 005°02'1 0.7
2017-Oct-14 22:06N 36°15' W 005°01'0 0.9
2017-Oct-14 21:57N 36°15' W 005°01'0 0.9
2017-Oct-14 21:30N 36°15' W 005°01'14 0.9
2017-Oct-14 06:21N 36°02' W 005°10'513.6
2017-Oct-14 06:00N 36°01' W 005°16'612.9
2017-Oct-14 05:30N 35°59' W 005°23'612.9
2017-Oct-14 05:00N 35°57' W 005°31'713.1
2017-Oct-14 04:30N 35°55' W 005°39'613.0
2017-Oct-14 04:00N 35°54' W 005°47'713.3
2017-Oct-14 03:30N 35°53' W 005°55'713.7
2017-Oct-14 02:59N 35°53' W 006°04'813.6
2017-Oct-14 02:24N 35°53' W 006°13'613.6
2017-Oct-14 01:58N 35°53' W 006°21'613.5
2017-Oct-14 01:30N 35°54' W 006°28'713.5
2017-Oct-14 01:00N 35°55' W 006°37'713.3
2017-Oct-14 00:30N 35°56' W 006°44'1013.4
2017-Oct-13 23:43N 35°59' W 006°57'313.5
2017-Oct-13 23:30N 35°59' W 007°01'713.7
2017-Oct-13 23:00N 36°01' W 007°09'713.8
2017-Oct-13 22:30N 36°01' W 007°17'714.1
2017-Oct-13 22:00N 36°03' W 007°26'713.7
2017-Oct-13 21:30N 36°04' W 007°34'713.9
2017-Oct-13 21:00N 36°06' W 007°43'713.7
2017-Oct-13 20:31N 36°07' W 007°51'713.6
2017-Oct-13 20:01N 36°08' W 007°59'713.5
2017-Oct-13 19:31N 36°09' W 008°07'713.3
2017-Oct-13 19:00N 36°10' W 008°16'713.5
2017-Oct-13 18:30N 36°11' W 008°24'713.3
2017-Oct-13 18:01N 36°13' W 008°32'713.4
2017-Oct-13 17:30N 36°14' W 008°40'713.8
2017-Oct-13 17:00N 36°15' W 008°49'612.3
2017-Oct-13 16:29N 36°16' W 008°56'4 8.1
2017-Oct-13 16:00N 36°18' W 009°01'713.9
2017-Oct-13 15:30N 36°20' W 009°09'714.0
2017-Oct-13 15:00N 36°21' W 009°17'612.9
2017-Oct-13 14:30N 36°24' W 009°25'713.7
2017-Oct-13 14:00N 36°25' W 009°33'713.4
2017-Oct-13 13:30N 36°27' W 009°41'713.3
2017-Oct-13 12:59N 36°29' W 009°49'713.5
2017-Oct-13 12:30N 36°31' W 009°57'713.5
2017-Oct-13 12:00N 36°33' W 010°05'713.4
2017-Oct-13 11:30N 36°35' W 010°13'713.6
2017-Oct-13 11:00N 36°38' W 010°21'713.6
2017-Oct-13 10:30N 36°40' W 010°29'713.8
2017-Oct-13 10:00N 36°43' W 010°37'713.4
2017-Oct-13 09:31N 36°45' W 010°44'713.6
2017-Oct-13 09:00N 36°48' W 010°52'914.2
2017-Oct-13 08:23N 36°51' W 011°02'2813.8
2017-Oct-13 06:19N 37°03' W 011°35'413.8
2017-Oct-13 05:59N 37°05' W 011°40'23613.8
2017-Oct-12 12:51N 38°31' W 016°18'913.4
2017-Oct-12 12:09N 38°33' W 016°30'1913.4
2017-Oct-12 10:46N 38°38' W 016°53'413.6
2017-Oct-12 10:27N 38°39' W 016°58'1413.5
2017-Oct-12 09:27N 38°43' W 017°15'1913.5
2017-Oct-12 08:04N 38°47' W 017°38'213.3
2017-Oct-12 07:55N 38°48' W 017°41'513.3
2017-Oct-12 07:30N 38°49' W 017°47'1113.5
2017-Oct-12 06:43N 38°52' W 018°01'313.3
2017-Oct-12 06:30N 38°53' W 018°04'813.5
2017-Oct-12 05:56N 38°55' W 018°14'613.5
2017-Oct-12 05:30N 38°56' W 018°21'1113.4
2017-Oct-12 04:39N 38°59' W 018°35'213.4
2017-Oct-12 04:30N 38°60' W 018°38'813.5
2017-Oct-12 03:55N 39°02' W 018°47'1613.6
2017-Oct-12 02:46N 39°06' W 019°07'313.5
2017-Oct-12 02:30N 39°07' W 019°11'  

Dump ship's entire track history